x

Sentry Shoal (46131) Wave Buoy

10:00 - Fri 1st Jul 2016 All times are PDT. -7 hours from GMT.

  • Sig Wave height 2.3ft
  • Peak Period 3s
  • Wind
    16mph, 20mph gusts
  • Sea Temp 59°f
  • Air Temp 59°f
  • Sea Pressure 1018.7mb
  • Sentry Shoal
  • Sentry Shoal

More Historic Weather Station data

Upgrade to MSW Pro to gain access to the past 30 days of data for over 8000 Wavebouys and Weather Stations around the globe.

Join Pro

Comparision Forecast

View Surf forecast
   
ven. 07/01 10:00 2.5ft 3s 16 20 mph 1018.7mb 59f 59f
9:00 2.5ft 4s 18 20 mph 1018.6mb 59f 60f
8:00 2.5ft 4s 16 20 mph 1018.3mb 60f 60f
7:00 2.5ft 4s 16 18 mph 1018.3mb 60f 61f
6:00 2.5ft 4s 16 20 mph 1017.5mb 61f 61f
5:00 2.5ft 4s 18 22 mph 1017.1mb 63f 63f
4:00 2.5ft 4s 22 27 mph 1016.6mb 63f 64f
3:00 2ft 3s 18 22 mph 1016.5mb 64f 64f
2:00 2.5ft 4s 16 18 mph 1016.8mb 64f 65f
1:00 1.6ft 3s 18 20 mph 1017mb 65f 65f
12:00 0.7ft 2s 13 18 mph 1017.6mb 65f 66f
jeu. 06/30 11:00 0.3ft 2s 11
mph
1018.1mb 66f 66f
10:00 0.3ft 2s 11 13 mph 1018.3mb 66f 66f
9:00 0.3ft 2s 9
mph
1018.3mb 67f 66f
8:00 0.3ft 2s 9
mph
1018.5mb 67f 66f
7:00 0.3ft 2s 4 7 mph 1018.9mb 67f 67f
6:00 0.3ft 4s 4
mph
1019.6mb 67f 67f
5:00 0.3ft 4s 7
mph
1020.1mb 67f 66f
3:00 0.3ft 2s 7 9 mph 1021.3mb 67f 65f
2:00 0.3ft 4s 4
mph
1022mb 67f 64f
1:00 0.3ft 3s 2 4 mph 1022.3mb 65f 63f
12:00 0.3ft 5s 2
mph
1022.8mb 65f 63f
11:00 0.3ft 2s 2
mph
1022.8mb 64f 62f
10:00 0.7ft 3s 7 9 mph 1023mb 62f 61f
9:00 1ft 3s 9 11 mph 1023.1mb 61f 60f
8:00 1.6ft 3s 13
mph
1022.8mb 61f 60f
7:00 1.6ft 3s 13 16 mph 1022.5mb 62f 60f
6:00 1.3ft 3s 16 18 mph 1021.9mb 62f 60f
5:00 1.3ft 3s 13 18 mph 1021.6mb 63f 60f
4:00 2ft 3s 16 20 mph 1020.8mb 64f 61f
3:00 1.3ft 2s 18 20 mph 1020.3mb 65f 62f
2:00 1.3ft 3s 13 18 mph 1020mb 65f 63f
1:00 1.3ft 3s 11 13 mph 1019.8mb 66f 64f
12:00 1.3ft 3s 16 18 mph 1019.4mb 66f 65f
mer. 06/29 11:00 0.7ft 2s 16 18 mph 1019.2mb 66f 66f
10:00 0.3ft 2s 11 13 mph 1019mb 66f 68f
9:00 0.3ft 2s 7 9 mph 1018.6mb 67f 70f
8:00 0.3ft 2s  -  mph 1018.6mb 67f 68f
7:00 0.3ft 2s 4 7 mph 1018.2mb 67f 68f
6:00 0.3ft 2s 4 7 mph 1018.4mb 68f 69f
5:00 0.3ft 3s 4
mph
1018.7mb 68f 69f
4:00 0.3ft 2s 4
mph
1019.3mb 68f 68f
3:00 0.3ft 3s 2 4 mph 1019.7mb 68f 68f
2:00 0.3ft 3s 2 4 mph 1020.1mb 67f 67f
1:00 0.3ft 2s 2
mph
1020.6mb 67f 66f
12:00 0.3ft 2s 2
mph
1021.1mb 65f 64f
11:00 0.7ft 2s 4
mph
1021.5mb 65f 63f
10:00 1ft 2s 9
mph
1021.9mb 64f 61f
9:00 1ft 3s 11 13 mph 1022.1mb 64f 60f
8:00 1.3ft 3s 9 11 mph 1022mb 62f 60f
7:00 1ft 3s 13
mph
1021.7mb 62f 60f
6:00 1.6ft 3s 11
mph
1021.4mb 61f 60f
5:00 2ft 3s 16 18 mph 1021mb 62f 60f
4:00 1.3ft 3s 16 18 mph 1020.5mb 63f 61f
3:00 1.3ft 3s 16 18 mph 1020.1mb 63f 62f
2:00 1.6ft 3s 18 20 mph 1019.9mb 63f 63f
1:00 2ft 3s 18 20 mph 1019.6mb 64f 64f
12:00 1.6ft 3s 20 25 mph 1019.1mb 63f 65f
mar. 06/28 11:00 1.6ft 3s 18 20 mph 1018.9mb 64f 66f
10:00 1.3ft 2s 20 25 mph 1018.6mb 65f 68f
9:00 1ft 2s 18 20 mph 1018.4mb 67f 69f
8:00  -  3s 13 16 mph 1018.6mb 69f 71f
7:00  -  3s 2 4 mph 1018.6mb 70f 72f
6:00  -  2s 2
mph
1018.7mb 70f 70f
5:00 0.3ft 3s 4
mph
1019.1mb 69f 69f
4:00 0.3ft 2s 4 7 mph 1019.8mb 68f 70f
3:00 0.3ft 2s 2
mph
1020.4mb 64f 69f
2:00 0.3ft 2s 2
mph
1020.9mb 66f 68f
1:00 0.3ft 2s 4
mph
1021.4mb 65f 66f
12:00 0.7ft 3s 7
mph
1021.9mb 62f 64f
11:00 0.7ft 2s 7 9 mph 1022.2mb 63f 63f
10:00 1.3ft 3s 9 11 mph 1022.4mb 63f 61f
9:00 1.3ft 3s 11 13 mph 1022.7mb 63f 60f
8:00 1.3ft 3s 13 16 mph 1022.7mb 61f 59f
7:00 1.3ft 3s 13 16 mph 1022.4mb 61f 59f
6:00 1.6ft 3s 13 16 mph 1022.2mb 61f 59f
5:00 1.6ft 3s 16 18 mph 1021.7mb 61f 59f
4:00 1.6ft 3s 18 20 mph 1021.3mb 62f 59f
3:00 2ft 3s 20 22 mph 1020.7mb 64f 61f
2:00 2ft 3s 18 22 mph 1020.4mb 64f 62f
1:00 2ft 3s 22 25 mph 1020mb 64f 63f
12:00 1.6ft 3s 20 25 mph 1019.8mb 65f 65f
lun. 06/27 11:00 1.6ft 3s 18 22 mph 1019.5mb 66f 66f
10:00 1.3ft 2s 18 20 mph 1019.2mb 66f 68f
9:00 0.7ft 2s 13 18 mph 1018.8mb 67f 70f
8:00  -  2s 13
mph
1018.7mb 67f 73f
7:00 0.3ft 2s 4 7 mph 1018.6mb 68f 72f